Weather observations for the past three days for
Marquette Sawyer Regional Airport
| Date | Time (edt) | Wind (kph) | Vis. (km) | Weather | Sky Cond. | Temperature (ºC) | Relative Humidity | Wind Chill (°C) | Heat Index (°C) | Pressure | Precipitation (cm) | ||||||
|---|---|---|---|---|---|---|---|---|---|---|---|---|---|---|---|---|---|
| Air | Dwpt | 6 hour | altimeter (cm) | sea level (mb) | 1 hr | 3 hr | 6 hr | ||||||||||
| Max. | Min. | ||||||||||||||||
| 06 | 11:47 | E 6 | 16.09 | Fair | CLR | 23 | 14 | 57% | 76.66 | 0.0 | |||||||
| 06 | 10:47 | SW 6 | 16.09 | Fair | CLR | 20 | 13 | 64% | 76.68 | 0.0 | |||||||
| 06 | 09:47 | Calm | 16.09 | Fair | CLR | 17 | 12 | 73% | 76.68 | 0.0 | |||||||
| 06 | 08:47 | Calm | 16.09 | Fair | CLR | 12 | 11 | 94% | 76.66 | 0.0 | |||||||
| 06 | 07:47 | Calm | 16.09 | Fair | CLR | 9 | 8 | 94% | 76.63 | 0.0 | |||||||
| 06 | 06:47 | Calm | 16.09 | Fair | CLR | 9 | 8 | 94% | 76.58 | 0.0 | |||||||
| 06 | 05:58 | N 2 | 16.09 | Fair | CLR | 9 | 9 | 100% | 76.61 | 0.0 | |||||||
| 06 | 05:38 | NW 4 | 16.09 | Fair | CLR | 9 | 9 | 100% | 76.61 | 0.0 | |||||||
| 06 | 05:18 | NW 4 | 16.09 | Fair | CLR | 9 | 9 | 100% | 76.61 | 0.0 | |||||||
| 06 | 04:58 | NW 2 | 16.09 | Fair | CLR | 9 | 9 | 100% | 76.61 | 0.0 | |||||||
| 06 | 04:38 | W 6 | 16.09 | Fair | CLR | 9 | 9 | 100% | 76.58 | 0.0 | |||||||
| 06 | 04:18 | NW 6 | 16.09 | Fair | CLR | 9 | 8 | 94% | 76.58 | 0.0 | |||||||
| 06 | 03:58 | N 6 | 16.09 | Fair | CLR | 10 | 10 | 100% | 76.56 | 0.0 | |||||||
| 06 | 03:38 | N 4 | 16.09 | Fair | CLR | 10 | 10 | 100% | 76.58 | 0.0 | |||||||
| 06 | 03:18 | NW 6 | 16.09 | Fair | CLR | 10 | 10 | 100% | 76.58 | 0.0 | |||||||
| 06 | 02:58 | N 4 | 16.09 | Fair | CLR | 11 | 11 | 100% | 76.56 | 0.0 | |||||||
| 06 | 02:38 | NW 4 | 16.09 | Fair | CLR | 11 | 11 | 100% | 76.56 | 0.0 | |||||||
| 06 | 02:18 | NW 6 | 16.09 | Fair | CLR | 11 | 11 | 100% | 76.56 | 0.0 | |||||||
| 06 | 01:58 | NW 6 | 16.09 | Fair | CLR | 11 | 11 | 100% | 76.53 | 0.0 | |||||||
| 06 | 01:38 | N 6 | 1.21 | Fog/Mist | VV005 | 12 | 12 | 100% | 76.53 | 0.0 | |||||||
| 06 | 01:18 | NW 4 | 12.87 | Fair | CLR | 12 | 12 | 100% | 76.53 | 0.0 | |||||||
| 06 | 00:58 | N 2 | 1.61 | Fog/Mist | CLR | 12 | 12 | 100% | 76.5 | 0.0 | |||||||
| 06 | 00:38 | NW 6 | 0.40 | Fog | VV002 | 12 | 12 | 100% | 76.5 | 0.0 | |||||||
| 06 | 00:18 | NW 4 | 0.40 | Fog | VV002 | 12 | 12 | 100% | 76.5 | 0.0 | |||||||
| 05 | 23:58 | NW 6 | 1.61 | Fog/Mist | CLR | 13 | 13 | 100% | 76.5 | 0.0 | |||||||
| 05 | 23:38 | N 4 | 0.40 | Fog | VV002 | 13 | 13 | 100% | 76.48 | 0.0 | |||||||
| 05 | 23:18 | N 2 | 16.09 | Fair | CLR | 13 | 13 | 100% | 76.5 | 0.0 | |||||||
| 05 | 22:58 | N 4 | 16.09 | Fair | CLR | 14 | 14 | 100% | 76.5 | 0.0 | |||||||
| 05 | 22:38 | NW 4 | 12.87 | Fair | CLR | 14 | 14 | 100% | 76.48 | 0.0 | |||||||
| 05 | 22:18 | N 6 | 16.09 | Fair | CLR | 15 | 14 | 94% | 76.48 | 0.0 | |||||||
| 05 | 21:45 | N 7 | 16.09 | Fair | CLR | 15 | 15 | 100% | 76.48 | 0.0 | |||||||
| 05 | 20:45 | NE 13 | 16.09 | Fair | CLR | 17 | 16 | 94% | 76.45 | 0.0 | |||||||
| 05 | 19:45 | NE 17 | 16.09 | Fair | CLR | 19 | 15 | 78% | 76.45 | 0.0 | |||||||
| 05 | 18:45 | NE 17 | 16.09 | Fair | CLR | 21 | 15 | 69% | 76.45 | 0.0 | |||||||
| 05 | 17:45 | NE 20 | 16.09 | Fair | CLR | 22 | 15 | 65% | 76.45 | 0.0 | |||||||
| 05 | 16:45 | NE 22 | 16.09 | Fair | CLR | 23 | 15 | 61% | 76.4 | 0.0 | |||||||
| 05 | 15:45 | NE 19 | 16.09 | A Few Clouds | FEW035 | 23 | 16 | 65% | 76.43 | 0.0 | |||||||
| 05 | 13:45 | N 11 | 16.09 | Partly Cloudy | SCT031 | 23 | 16 | 65% | 76.48 | 0.0 | |||||||
| 05 | 12:45 | E 15 | 16.09 | Partly Cloudy | SCT040 | 22 | 16 | 69% | 76.48 | 0.0 | |||||||
| 05 | 11:45 | E 9 | 16.09 | A Few Clouds | FEW016 | 22 | 16 | 69% | 76.5 | 0.0 | |||||||
| 05 | 10:45 | NE 9 | 16.09 | Fair | CLR | 19 | 17 | 88% | 76.5 | 0.0 | |||||||
| 05 | 09:45 | NE 15 | 16.09 | Mostly Cloudy | BKN003 | 18 | 17 | 94% | 76.45 | 0.0 | |||||||
| 05 | 08:45 | NE 15 | 3.22 | Overcast | OVC001 | 17 | 17 | 100% | 76.4 | 0.0 | |||||||
| 05 | 07:45 | NE 11 | 0.31 | Fog | VV000 | 16 | 16 | 100% | 76.35 | 0.0 | |||||||
| 05 | 06:45 | NE 11 | 0.31 | Fog | VV000 | 16 | 16 | 100% | 76.33 | 0.0 | |||||||
| 05 | 05:58 | N 9 | 0.24 | Fog | VV000 | 16 | 16 | 100% | 76.35 | 0.0 | |||||||
| 05 | 05:38 | N 9 | 0.40 | Fog | BKN001 | 15 | 15 | 100% | 76.35 | 0.0 | |||||||
| 05 | 05:18 | N 7 | 0.24 | Fog | VV000 | 14 | 14 | 100% | 76.35 | 0.0 | |||||||
| 05 | 04:58 | N 9 | 1.21 | Fog/Mist | VV005 | 14 | 14 | 100% | 76.35 | 0.0 | |||||||
| 05 | 04:38 | N 7 | 16.09 | Fair | CLR | 14 | 14 | 100% | 76.35 | 0.0 | |||||||
| 05 | 04:18 | N 7 | 16.09 | Fair | CLR | 13 | 13 | 100% | 76.33 | 0.0 | |||||||
| 05 | 03:58 | NE 4 | 16.09 | Fair | CLR | 14 | 14 | 100% | 76.35 | 0.0 | |||||||
| 05 | 03:38 | NE 7 | 4.02 | Fog/Mist | CLR | 14 | 14 | 100% | 76.33 | 0.0 | |||||||
| 05 | 03:18 | N 9 | 3.22 | Fog/Mist | SCT060 | 15 | 15 | 100% | 76.35 | 0.0 | |||||||
| 05 | 02:58 | NE 9 | 16.09 | A Few Clouds | FEW060 | 15 | 15 | 100% | 76.35 | 0.0 | |||||||
| 05 | 02:38 | N 7 | 16.09 | A Few Clouds | FEW060 | 14 | 14 | 100% | 76.33 | 0.0 | |||||||
| 05 | 02:18 | N 6 | 16.09 | Fair | CLR | 15 | 15 | 100% | 76.33 | 0.0 | |||||||
| 05 | 01:58 | N 6 | 2.41 | Fog/Mist | CLR | 15 | 15 | 100% | 76.35 | 0.0 | |||||||
| 05 | 01:38 | N 6 | 0.40 | Fog | VV002 | 15 | 15 | 100% | 76.33 | 0.0 | |||||||
| 05 | 01:18 | N 6 | 0.24 | Fog | VV000 | 15 | 15 | 100% | 76.33 | 0.0 | |||||||
| 05 | 00:38 | N 11 | 0.24 | Fog | BKN001 | 16 | 16 | 100% | 76.3 | 0.0 | |||||||
| 05 | 00:18 | NE 13 | 1.21 | Fog/Mist | BKN001 | 16 | 16 | 100% | 76.3 | 0.0 | |||||||
| 04 | 23:58 | NE 13 | 16.09 | Fair | CLR | 17 | 16 | 94% | 76.3 | 0.0 | |||||||
| 04 | 23:38 | NE 7 | 16.09 | Fair | CLR | 16 | 16 | 100% | 76.3 | 0.0 | |||||||
| 04 | 23:18 | N 7 | 16.09 | Fair | CLR | 16 | 16 | 100% | 76.3 | 0.0 | |||||||
| 04 | 22:58 | N 7 | 14.48 | A Few Clouds | FEW070 | 16 | 16 | 100% | 76.3 | 0.0 | |||||||
| 04 | 22:38 | N 6 | 16.09 | Partly Cloudy | FEW046 SCT070 | 16 | 16 | 100% | 76.3 | 0.0 | |||||||
| 04 | 22:18 | NE 7 | 16.09 | Mostly Cloudy | SCT046 BKN070 | 17 | 17 | 100% | 76.28 | 0.0 | |||||||
| 04 | 21:45 | N 6 | 16.09 | Overcast | FEW043 OVC070 | 17 | 17 | 100% | 76.28 | 0.0 | |||||||
| 04 | 20:45 | NE 11 | 16.09 | Overcast | OVC042 | 18 | 17 | 94% | 76.25 | 0.0 | |||||||
| 04 | 19:45 | NE 13 | 16.09 | Overcast | FEW007 OVC036 | 19 | 18 | 94% | 76.25 | 0.0 | |||||||
| 04 | 18:45 | NE 13 | 16.09 | Overcast | SCT007 SCT014 OVC030 | 19 | 18 | 94% | 76.23 | 0.0 | |||||||
| 04 | 17:45 | NE 17 | 16.09 | Overcast | OVC007 | 19 | 18 | 94% | 76.2 | 0.0 | |||||||
| 04 | 16:45 | NE 19 | 16.09 | Overcast | BKN009 OVC017 | 20 | 18 | 88% | 76.2 | 0.0 | |||||||
| 04 | 15:45 | NE 11 | 16.09 | Overcast | BKN013 BKN018 OVC028 | 21 | 18 | 83% | 76.17 | 0.0 | |||||||
| 04 | 14:45 | E 6 | 16.09 | Overcast | SCT013 OVC026 | 20 | 17 | 83% | 76.17 | 0.0 | |||||||
| 04 | 13:45 | E 11 | 16.09 | Overcast | SCT011 SCT016 OVC024 | 20 | 16 | 78% | 76.2 | 0.0 | |||||||
| 04 | 12:45 | E 7 | 16.09 | Overcast | OVC022 | 19 | 17 | 88% | 76.2 | 0.0 | |||||||
| 04 | 11:52 | E 11 | 16.09 | Overcast | OVC018 | 19 | 17 | 88% | 76.17 | 0.0 | |||||||
| 04 | 10:52 | E 6 | 16.09 | Overcast | FEW006 BKN018 OVC027 | 18 | 17 | 94% | 76.17 | 0.0 | |||||||
| 04 | 09:52 | S 9 | 16.09 | Overcast | FEW005 BKN015 OVC080 | 17 | 17 | 100% | 76.15 | 0.0 | |||||||
| 04 | 08:52 | E 4 | 4.02 | Rain Fog/Mist | BKN025 BKN050 OVC090 | 16 | 16 | 100% | 76.2 | 0.0 | |||||||
| 04 | 07:52 | S 6 | 16.09 | Overcast | BKN080 OVC090 | 16 | 16 | 100% | 76.15 | 0.0 | |||||||
| 04 | 06:51 | S 7 | 16.09 | Mostly Cloudy | BKN080 | 15 | 15 | 100% | 76.1 | 0.0 | |||||||
| 04 | 05:58 | SE 7 | 16.09 | Mostly Cloudy | SCT004 BKN100 | 15 | 15 | 100% | 76.12 | 0.0 | |||||||
| 04 | 05:38 | E 7 | 16.09 | Overcast | OVC004 | 15 | 15 | 100% | 76.12 | 0.0 | |||||||
| 04 | 05:18 | E 7 | 16.09 | Overcast | BKN004 BKN036 OVC050 | 15 | 15 | 100% | 76.17 | 0.0 | |||||||
| 04 | 04:58 | NE 11 | 16.09 | Light Rain | SCT033 BKN044 BKN075 | 16 | 15 | 94% | 76.15 | 0.0 | |||||||
| 04 | 04:38 | E 7 | 9.66 | Light Rain Fog/Mist | BKN050 BKN065 BKN075 | 16 | 15 | 94% | 76.15 | 0.0 | |||||||
| 04 | 04:18 | Vrbl 6 | 6.44 | Rain Fog/Mist | SCT039 OVC050 | 16 | 16 | 100% | 76.23 | 0.0 | |||||||
| 04 | 03:58 | N 15 | 12.87 | Thunderstorm in Vicinity Rain | OVC039 | 16 | 16 | 100% | 76.2 | 0.0 | |||||||
| 04 | 03:38 | N 7 | 16.09 | Thunderstorm in Vicinity | OVC039 | 16 | 15 | 94% | 76.17 | 0.0 | |||||||
| 04 | 03:18 | NE 11 | 16.09 | Overcast | OVC037 | 16 | 15 | 94% | 76.17 | 0.0 | |||||||
| 04 | 02:58 | NE 9 | 16.09 | Overcast | OVC035 | 17 | 15 | 88% | 76.15 | 0.0 | |||||||
| 04 | 02:38 | E 11 | 16.09 | Thunderstorm in Vicinity | OVC035 | 17 | 15 | 88% | 76.1 | 0.0 | |||||||
| 04 | 02:18 | E 11 | 16.09 | Light Rain | BKN037 OVC065 | 17 | 15 | 88% | 76.12 | 0.0 | |||||||
| 04 | 01:58 | E 7 | 16.09 | Light Rain | SCT039 BKN065 OVC095 | 17 | 15 | 88% | 76.15 | 0.0 | |||||||
| 04 | 01:38 | E 7 | 4.02 | Heavy Rain Haze | BKN043 OVC070 | 17 | 15 | 88% | 76.17 | 0.0 | |||||||
| 04 | 01:18 | E 7 | 16.09 | Overcast | SCT043 OVC070 | 18 | 14 | 78% | 76.17 | 0.0 | |||||||
| 04 | 00:58 | E 11 | 16.09 | Overcast | OVC070 | 18 | 14 | 78% | 76.17 | 0.0 | |||||||
| 04 | 00:38 | E 13 | 16.09 | Overcast | BKN070 OVC085 | 18 | 14 | 78% | 76.17 | 0.0 | |||||||
| 04 | 00:18 | E 9 | 16.09 | Overcast | SCT070 OVC085 | 18 | 15 | 83% | 76.2 | 0.0 | |||||||
| 03 | 23:58 | E 9 | 16.09 | Overcast | SCT060 OVC085 | 18 | 15 | 83% | 76.2 | 0.0 | |||||||
| 03 | 23:38 | E 7 | 16.09 | Mostly Cloudy | SCT060 BKN085 | 18 | 15 | 83% | 76.2 | 0.0 | |||||||
| 03 | 23:18 | E 9 | 16.09 | Partly Cloudy | SCT085 | 18 | 15 | 83% | 76.17 | 0.0 | |||||||
| 03 | 22:58 | NE 9 | 16.09 | Mostly Cloudy | BKN075 | 18 | 15 | 83% | 76.2 | 0.0 | |||||||
| 03 | 22:38 | NE 7 | 16.09 | Overcast | FEW065 OVC075 | 17 | 15 | 88% | 76.23 | 0.0 | |||||||
| 03 | 22:18 | NE 7 | 16.09 | Overcast | FEW065 OVC075 | 18 | 15 | 83% | 76.2 | 0.0 | |||||||
| 03 | 21:45 | NW 6 | 16.09 | Partly Cloudy | SCT037 SCT075 | 17 | 16 | 94% | 76.2 | 0.0 | |||||||
| 03 | 20:45 | NE 11 | 16.09 | Partly Cloudy | SCT075 | 18 | 16 | 88% | 76.12 | 0.0 | |||||||
| 03 | 19:45 | NE 15 | 16.09 | Partly Cloudy | SCT075 | 20 | 15 | 73% | 76.12 | 0.0 | |||||||
| 03 | 18:45 | NE 22 | 16.09 | Partly Cloudy | SCT080 | 21 | 15 | 69% | 76.1 | 0.0 | |||||||
| 03 | 17:45 | N 22 | 16.09 | Partly Cloudy | SCT080 | 23 | 15 | 61% | 76.05 | 0.0 | |||||||
| 03 | 16:45 | NE 22 | 16.09 | Fair | CLR | 24 | 15 | 57% | 25 | 76.07 | 0.0 | ||||||
| 03 | 15:45 | E 17 | 16.09 | Partly Cloudy | SCT090 | 25 | 15 | 54% | 26 | 76.1 | 0.0 | ||||||
| 03 | 14:46 | E 15 | 16.09 | Fair | CLR | 25 | 14 | 51% | 26 | 76.12 | 0.0 | ||||||
| 03 | 13:45 | E 9 | 16.09 | A Few Clouds | FEW100 | 24 | 14 | 54% | 25 | 76.15 | 0.0 | ||||||
| 03 | 12:45 | E 7 | 16.09 | Fair | CLR | 22 | 13 | 57% | 76.17 | 0.0 | |||||||
| Date | Time (edt) | Wind (kph) | Vis. (km) | Weather | Sky Cond. | Air | Dwpt | Max. | Min. | Relative Humidity | Wind Chill (°C) | Heat Index (°C) | altimeter (cm) | sea level (mb) | 1 hr | 3 hr | 6 hr |
| 6 hour | |||||||||||||||||
| Temperature (ºC) | Pressure | Precipitation (cm) | |||||||||||||||